Terminal Aerodrome Forecast
Issued by NWS

Home | Current Version | Previous Version | Text Only | Print | Product List | Glossary On
Versions: 1 2 3 4 5 6 7 8 9 10 11 12 13 14 15 16 17 18 19 20 21 22 23 24 25 26 27 28 29 30 31 32
000
FTUS45 KSLC 300520
TAFPVU
TAF
KPVU 300520Z 3006/3106 10006KT P6SM VCSH SCT060 BKN090
     FM300800 14008KT P6SM SCT060 BKN090
     FM301500 28008KT P6SM SCT090 BKN120
     FM302100 32012G18KT P6SM FEW110 SCT140
     FM310500 VRB05KT P6SM SCT140
      AMD LTD TO CLD VIS AND WIND=

USA.gov is the U.S. government's official web portal to all federal, state and local government web resources and services.